createdAt,value
2017-07-20T00:01:23.139Z,9.23
2017-07-20T00:03:50.893Z,9.93
2017-07-20T00:06:18.444Z,9.63
2017-07-20T00:08:46.045Z,11.77
2017-07-20T00:11:13.772Z,10.47
2017-07-20T00:13:41.320Z,10.30
2017-07-20T00:16:09.132Z,9.57
2017-07-20T00:18:36.702Z,12.03
2017-07-20T00:21:04.317Z,10.07
2017-07-20T00:23:31.933Z,11.07
2017-07-20T00:25:59.475Z,9.90
2017-07-20T00:28:27.057Z,9.30
2017-07-20T00:30:54.694Z,8.50
2017-07-20T00:33:22.237Z,10.77
2017-07-20T00:35:49.862Z,10.07
2017-07-20T00:38:17.521Z,9.97
2017-07-20T00:40:45.171Z,9.53
2017-07-20T00:43:13.101Z,10.20
2017-07-20T00:45:40.717Z,9.87
2017-07-20T00:48:08.361Z,11.30
2017-07-20T00:50:35.916Z,10.07
2017-07-20T00:53:03.535Z,10.53
2017-07-20T00:55:31.108Z,11.30
2017-07-20T00:57:58.677Z,11.03
2017-07-20T01:00:26.281Z,11.80
2017-07-20T01:02:54.003Z,9.90
2017-07-20T01:05:22.383Z,11.50
2017-07-20T01:07:50.091Z,12.60
2017-07-20T01:10:18.381Z,11.83
2017-07-20T01:12:46.246Z,11.90
2017-07-20T01:15:13.802Z,11.87
2017-07-20T01:17:41.948Z,13.03
2017-07-20T01:20:09.564Z,12.07
2017-07-20T01:22:37.124Z,12.10
2017-07-20T01:25:04.783Z,11.60
2017-07-20T01:27:32.372Z,10.20
2017-07-20T01:30:00.063Z,11.73
2017-07-20T01:32:27.674Z,10.90
2017-07-20T01:34:55.536Z,12.40
2017-07-20T01:37:23.116Z,9.47
2017-07-20T01:39:50.702Z,12.27
2017-07-20T01:42:18.323Z,11.33
2017-07-20T01:44:45.870Z,10.30
2017-07-20T01:47:13.458Z,11.47
2017-07-20T01:49:41.049Z,12.33
2017-07-20T01:52:08.605Z,13.20
2017-07-20T01:54:36.272Z,12.13
2017-07-20T01:57:03.965Z,13.40
2017-07-20T01:59:31.601Z,12.30
2017-07-20T02:01:59.164Z,13.80
2017-07-20T02:04:26.828Z,13.13
2017-07-20T02:06:54.405Z,12.00
2017-07-20T02:09:22.229Z,14.27
2017-07-20T02:11:49.825Z,13.47
2017-07-20T02:14:17.362Z,14.43
2017-07-20T02:16:44.910Z,13.73
2017-07-20T02:19:12.745Z,14.77
2017-07-20T02:21:40.310Z,14.33
2017-07-20T02:24:07.856Z,12.83
2017-07-20T02:26:35.457Z,13.10
2017-07-20T02:29:03.015Z,12.37
2017-07-20T02:31:30.604Z,12.83
2017-07-20T02:33:58.489Z,13.87
2017-07-20T02:36:26.069Z,15.33
2017-07-20T02:38:53.624Z,14.80
2017-07-20T02:41:21.418Z,15.40
2017-07-20T02:43:48.962Z,14.07
2017-07-20T02:46:16.538Z,12.23
2017-07-20T02:48:44.193Z,12.20
2017-07-20T02:51:11.707Z,10.97
2017-07-20T02:53:39.202Z,10.27
2017-07-20T02:56:06.808Z,10.23
2017-07-20T02:58:34.322Z,12.87
2017-07-20T03:01:01.831Z,12.17
2017-07-20T03:03:29.362Z,11.67
2017-07-20T03:05:56.874Z,11.80
2017-07-20T03:08:24.461Z,12.20
2017-07-20T03:10:52.327Z,10.00
2017-07-20T03:13:19.855Z,9.70
2017-07-20T03:15:47.361Z,11.60
2017-07-20T03:18:14.906Z,9.97
2017-07-20T03:20:42.415Z,9.17
2017-07-20T03:23:09.970Z,10.00
2017-07-20T03:25:37.791Z,9.70
2017-07-20T03:28:05.295Z,9.00
2017-07-20T03:30:32.855Z,10.50
2017-07-20T03:33:00.676Z,10.87
2017-07-20T03:35:28.487Z,10.97
2017-07-20T03:37:57.090Z,10.03
2017-07-20T03:40:25.007Z,11.50
2017-07-20T03:42:52.560Z,10.03
2017-07-20T03:45:20.205Z,10.37
2017-07-20T03:47:47.888Z,11.60
2017-07-20T03:50:15.515Z,10.30
2017-07-20T03:52:43.015Z,11.63
2017-07-20T03:55:10.580Z,10.67
2017-07-20T03:57:38.339Z,11.33
2017-07-20T04:00:05.846Z,11.33
2017-07-20T04:02:33.438Z,11.57
2017-07-20T04:05:00.994Z,12.93
2017-07-20T04:07:28.515Z,11.10
2017-07-20T04:09:56.318Z,12.47
2017-07-20T04:12:23.579Z,12.37
2017-07-20T04:14:51.163Z,14.00
2017-07-20T04:17:18.997Z,12.57
2017-07-20T04:19:46.498Z,13.10
2017-07-20T04:22:14.048Z,13.53
2017-07-20T04:24:41.595Z,12.60
2017-07-20T04:27:09.093Z,14.23
2017-07-20T04:29:36.587Z,12.27
2017-07-20T04:32:04.419Z,14.20
2017-07-20T04:34:31.962Z,14.20
2017-07-20T04:36:59.494Z,12.27
2017-07-20T04:39:27.019Z,13.67
2017-07-20T04:41:54.522Z,14.63
2017-07-20T04:44:22.025Z,11.20
2017-07-20T04:46:49.573Z,9.77
2017-07-20T04:49:17.070Z,8.97
2017-07-20T04:51:44.572Z,9.97
2017-07-20T04:54:12.280Z,9.60
2017-07-20T04:56:39.812Z,9.30
2017-07-20T04:59:07.366Z,10.10
2017-07-20T05:01:35.189Z,9.63
2017-07-20T05:04:02.683Z,9.50
2017-07-20T05:06:30.242Z,9.57
2017-07-20T05:08:57.795Z,9.20
2017-07-20T05:11:25.314Z,9.63
2017-07-20T05:13:52.835Z,10.60
2017-07-20T05:16:20.671Z,9.10
2017-07-20T05:18:48.259Z,8.60
2017-07-20T05:21:16.855Z,10.40
2017-07-20T05:23:45.275Z,11.60
2017-07-20T05:26:12.777Z,7.87
2017-07-20T05:28:40.305Z,9.17
2017-07-20T05:31:07.899Z,8.93
2017-07-20T05:33:35.399Z,8.50
2017-07-20T05:36:02.918Z,8.17
2017-07-20T05:38:30.711Z,8.80
2017-07-20T05:40:58.274Z,7.77
2017-07-20T05:43:25.789Z,8.67
2017-07-20T05:45:53.345Z,8.40
2017-07-20T05:48:20.838Z,7.70
2017-07-20T05:50:48.134Z,8.63
2017-07-20T05:53:16.070Z,9.07
2017-07-20T05:55:43.917Z,9.03
2017-07-20T05:58:11.467Z,8.77
2017-07-20T06:00:41.045Z,8.23
2017-07-20T06:03:09.039Z,8.67
2017-07-20T06:05:36.590Z,10.73
2017-07-20T06:08:04.432Z,10.00
2017-07-20T06:10:31.935Z,8.90
2017-07-20T06:12:59.434Z,8.00
2017-07-20T06:15:27.279Z,9.13
2017-07-20T06:17:55.591Z,9.40
2017-07-20T06:20:24.111Z,7.93
2017-07-20T06:22:52.106Z,9.07
2017-07-20T06:25:19.735Z,10.80
2017-07-20T06:27:48.071Z,10.40
2017-07-20T06:30:16.303Z,10.37
2017-07-20T06:32:44.093Z,11.40
2017-07-20T06:35:11.560Z,10.27
2017-07-20T06:37:39.187Z,10.60
2017-07-20T06:40:06.999Z,9.47
2017-07-20T06:42:34.783Z,9.77
2017-07-20T06:45:03.455Z,10.30
2017-07-20T06:47:31.449Z,10.97
2017-07-20T06:50:00.118Z,11.00
2017-07-20T06:52:28.384Z,10.43
2017-07-20T06:54:58.341Z,8.70
2017-07-20T06:57:27.722Z,9.37
2017-07-20T06:59:55.671Z,9.87
2017-07-20T07:02:23.976Z,9.07
2017-07-20T07:04:52.995Z,8.93
2017-07-20T07:07:20.772Z,8.07
2017-07-20T07:09:49.093Z,7.67
2017-07-20T07:12:17.212Z,7.90
2017-07-20T07:14:45.188Z,7.80
2017-07-20T07:17:13.017Z,7.13
2017-07-20T07:19:41.269Z,7.73
2017-07-20T07:22:09.284Z,7.27
2017-07-20T07:24:37.674Z,6.57
2017-07-20T07:27:06.237Z,6.17
2017-07-20T07:29:34.662Z,7.00
2017-07-20T07:32:04.060Z,5.80
2017-07-20T07:34:32.748Z,5.97
2017-07-20T07:37:01.697Z,5.10
2017-07-20T07:39:30.189Z,5.80
2017-07-20T07:41:58.427Z,6.20
2017-07-20T07:44:27.394Z,5.70
2017-07-20T07:46:55.402Z,5.43
2017-07-20T07:49:24.248Z,5.17
2017-07-20T07:51:53.479Z,6.27
2017-07-20T07:54:21.500Z,5.23
2017-07-20T07:56:50.418Z,5.63
2017-07-20T07:59:18.390Z,5.70
2017-07-20T08:01:46.287Z,5.10
2017-07-20T08:04:15.735Z,6.30
2017-07-20T08:06:45.234Z,5.17
2017-07-20T08:09:15.562Z,4.90
2017-07-20T08:11:43.867Z,5.20
2017-07-20T08:14:13.001Z,5.90
2017-07-20T08:16:41.199Z,5.37
2017-07-20T08:19:09.178Z,5.57
2017-07-20T08:21:36.954Z,5.60
2017-07-20T08:24:05.506Z,5.33
2017-07-20T08:26:33.684Z,4.60
2017-07-20T08:29:01.690Z,4.50
2017-07-20T08:31:29.528Z,4.80
2017-07-20T08:33:57.123Z,5.23
2017-07-20T08:36:24.615Z,4.40
2017-07-20T08:38:52.133Z,4.97
2017-07-20T08:41:20.044Z,5.67
2017-07-20T08:43:47.547Z,4.60
2017-07-20T08:46:15.044Z,5.10
2017-07-20T08:48:42.671Z,5.90
2017-07-20T08:51:10.238Z,5.03
2017-07-20T08:53:37.827Z,5.13
2017-07-20T08:56:05.979Z,5.10
2017-07-20T08:58:33.523Z,5.23
2017-07-20T09:01:01.051Z,4.13
2017-07-20T09:03:28.590Z,4.83
2017-07-20T09:05:56.088Z,5.17
2017-07-20T09:08:23.591Z,5.97
2017-07-20T09:10:51.475Z,5.73
2017-07-20T09:13:18.990Z,4.63
2017-07-20T09:15:46.530Z,4.73
2017-07-20T09:18:14.904Z,5.53
2017-07-20T09:20:42.439Z,4.90
2017-07-20T09:23:09.952Z,4.37
2017-07-20T09:25:37.575Z,5.40
2017-07-20T09:28:05.142Z,6.17
2017-07-20T09:30:32.648Z,5.77
2017-07-20T09:33:00.216Z,6.10
2017-07-20T09:35:27.715Z,6.20
2017-07-20T09:37:55.289Z,6.37
2017-07-20T09:40:22.871Z,6.43
2017-07-20T09:42:50.434Z,6.23
2017-07-20T09:45:29.166Z,6.20
2017-07-20T09:47:57.398Z,6.13
2017-07-20T09:50:24.898Z,5.47
2017-07-20T09:52:52.726Z,7.07
2017-07-20T09:55:20.239Z,5.60
2017-07-20T09:57:47.767Z,5.63
2017-07-20T10:00:15.587Z,6.27
2017-07-20T10:02:43.095Z,6.57
2017-07-20T10:05:11.144Z,6.00
2017-07-20T10:07:38.738Z,6.77
2017-07-20T10:10:06.326Z,6.70
2017-07-20T10:12:33.841Z,7.07
2017-07-20T10:15:01.728Z,6.93
2017-07-20T10:17:29.227Z,6.20
2017-07-20T10:19:56.726Z,7.47
2017-07-20T10:22:24.317Z,6.23
2017-07-20T10:24:52.454Z,7.10
2017-07-20T10:27:20.062Z,6.70
2017-07-20T10:29:47.899Z,5.33
2017-07-20T10:32:15.390Z,6.00
2017-07-20T10:34:42.882Z,5.57
2017-07-20T10:37:10.742Z,5.87
2017-07-20T10:39:38.268Z,6.23
2017-07-20T10:42:05.809Z,6.00
2017-07-20T10:44:33.601Z,7.10
2017-07-20T10:47:01.105Z,6.40
2017-07-20T10:49:28.759Z,6.30
2017-07-20T10:51:56.334Z,6.90
2017-07-20T10:54:23.859Z,6.20
2017-07-20T10:56:51.500Z,6.67
2017-07-20T10:59:19.050Z,5.63
2017-07-20T11:01:46.578Z,7.27
2017-07-20T11:04:14.203Z,7.03
2017-07-20T11:06:42.294Z,7.83
2017-07-20T11:09:09.903Z,7.33
2017-07-20T11:11:37.414Z,8.37
2017-07-20T11:14:04.978Z,8.20
2017-07-20T11:16:33.146Z,6.57
2017-07-20T11:19:00.679Z,7.63
2017-07-20T11:21:28.571Z,6.93
2017-07-20T11:23:56.115Z,8.47
2017-07-20T11:26:23.615Z,9.53
2017-07-20T11:28:51.165Z,8.47
2017-07-20T11:31:18.662Z,8.57
2017-07-20T11:33:46.158Z,9.60
2017-07-20T11:36:13.753Z,8.00
2017-07-20T11:38:41.251Z,6.83
2017-07-20T11:41:08.758Z,7.17
2017-07-20T11:43:36.572Z,7.77
2017-07-20T11:46:04.103Z,8.13
2017-07-20T11:48:32.062Z,6.87
2017-07-20T11:51:00.023Z,6.90
2017-07-20T11:53:27.592Z,7.13
2017-07-20T11:55:55.215Z,6.90
2017-07-20T11:58:22.730Z,8.70
2017-07-20T12:00:50.314Z,7.53
2017-07-20T12:03:17.879Z,6.33
2017-07-20T12:05:45.385Z,6.00
2017-07-20T12:08:13.015Z,6.70
2017-07-20T12:10:40.603Z,5.93
2017-07-20T12:13:08.247Z,7.37
2017-07-20T12:15:35.903Z,5.30
2017-07-20T12:18:04.002Z,5.73
2017-07-20T12:20:31.829Z,6.80
2017-07-20T12:22:59.424Z,7.10
2017-07-20T12:25:27.014Z,6.10
2017-07-20T12:27:54.531Z,6.37
2017-07-20T12:30:22.421Z,6.67
2017-07-20T12:32:50.071Z,6.70
2017-07-20T12:35:17.828Z,8.10
2017-07-20T12:37:45.475Z,7.43
2017-07-20T12:40:13.042Z,6.60
2017-07-20T12:42:40.559Z,7.63
2017-07-20T12:45:08.058Z,7.37
2017-07-20T12:47:35.619Z,6.73
2017-07-20T12:50:02.885Z,7.70
2017-07-20T12:52:30.414Z,6.63
2017-07-20T12:54:58.279Z,6.60
2017-07-20T12:57:25.786Z,7.07
2017-07-20T12:59:53.538Z,6.93
2017-07-20T13:02:21.371Z,5.97
2017-07-20T13:04:48.874Z,6.33
2017-07-20T13:07:16.757Z,6.80
2017-07-20T13:09:44.666Z,5.93
2017-07-20T13:12:12.443Z,5.90
2017-07-20T13:14:41.220Z,5.40
2017-07-20T13:17:08.875Z,6.10
2017-07-20T13:19:36.498Z,6.00
2017-07-20T13:22:04.355Z,6.40
2017-07-20T13:24:32.194Z,5.60
2017-07-20T13:26:59.814Z,6.67
2017-07-20T13:29:28.411Z,5.10
2017-07-20T13:31:56.347Z,5.90
2017-07-20T13:34:23.870Z,5.47
2017-07-20T13:36:51.395Z,5.50
2017-07-20T13:39:19.190Z,5.43
2017-07-20T13:41:47.041Z,5.77
2017-07-20T13:44:14.559Z,5.53
2017-07-20T13:46:42.140Z,6.43
2017-07-20T13:49:09.643Z,6.40
2017-07-20T13:51:37.187Z,6.23
2017-07-20T13:54:04.985Z,6.37
2017-07-20T13:56:32.500Z,5.50
2017-07-20T13:59:00.038Z,5.93
2017-07-20T14:01:27.783Z,6.33
2017-07-20T14:03:55.629Z,6.00
2017-07-20T14:06:23.274Z,6.67
2017-07-20T14:08:51.368Z,5.80
2017-07-20T14:11:19.419Z,5.83
2017-07-20T14:13:48.426Z,6.10
2017-07-20T14:16:16.191Z,6.33
2017-07-20T14:18:43.724Z,4.97
2017-07-20T14:21:13.586Z,6.00
2017-07-20T14:23:41.176Z,6.80
2017-07-20T14:26:08.756Z,6.60
2017-07-20T14:28:36.306Z,7.07
2017-07-20T14:31:04.218Z,6.57
2017-07-20T14:33:32.136Z,6.30
2017-07-20T14:36:00.595Z,6.70
2017-07-20T14:38:28.179Z,6.70
2017-07-20T14:40:55.748Z,6.40
2017-07-20T14:43:23.361Z,6.43
2017-07-20T14:45:51.566Z,5.90
2017-07-20T14:48:19.359Z,5.93
2017-07-20T14:50:46.911Z,5.70
2017-07-20T14:53:14.344Z,7.20
2017-07-20T14:58:15.988Z,6.47
2017-07-20T15:00:43.528Z,5.37
2017-07-20T15:03:11.499Z,6.07
2017-07-20T15:05:39.292Z,5.53
2017-07-20T15:08:06.943Z,6.30
2017-07-20T15:10:35.422Z,5.30
2017-07-20T15:13:04.102Z,5.67
2017-07-20T15:15:31.753Z,5.23
2017-07-20T15:17:59.559Z,5.53
2017-07-20T15:20:27.249Z,4.93
2017-07-20T15:22:54.939Z,5.77
2017-07-20T15:25:22.722Z,5.70
2017-07-20T15:27:50.480Z,5.50
2017-07-20T15:30:17.997Z,5.87
2017-07-20T15:32:45.527Z,5.80
2017-07-20T15:35:15.007Z,5.53
2017-07-20T15:37:42.527Z,5.37
2017-07-20T15:40:10.372Z,5.90
2017-07-20T15:42:38.078Z,4.63
2017-07-20T15:45:05.604Z,5.20
2017-07-20T15:47:33.118Z,4.90
2017-07-20T15:50:01.451Z,5.30
2017-07-20T15:52:28.979Z,5.20
2017-07-20T15:54:58.755Z,5.23
2017-07-20T15:57:26.399Z,5.20
2017-07-20T15:59:53.902Z,5.17
2017-07-20T16:02:21.435Z,4.87
2017-07-20T16:04:49.341Z,5.43
2017-07-20T16:07:17.184Z,6.50
2017-07-20T16:09:44.835Z,6.10
2017-07-20T16:12:13.395Z,6.20
2017-07-20T16:14:41.763Z,7.00
2017-07-20T16:17:09.263Z,6.30
2017-07-20T16:19:36.850Z,5.50
2017-07-20T16:22:04.384Z,5.50
2017-07-20T16:24:31.927Z,6.20
2017-07-20T16:26:59.726Z,3.80
2017-07-20T16:29:28.251Z,4.83
2017-07-20T16:31:55.898Z,4.17
2017-07-20T16:34:23.628Z,4.70
2017-07-20T16:36:51.647Z,3.90
2017-07-20T16:39:19.457Z,5.27
2017-07-20T16:41:47.385Z,5.20
2017-07-20T16:44:15.199Z,5.50
2017-07-20T16:46:43.074Z,4.07
2017-07-20T16:49:10.941Z,5.70
2017-07-20T16:51:38.574Z,4.43
2017-07-20T16:54:06.123Z,4.00
2017-07-20T16:56:33.824Z,4.53
2017-07-20T16:59:01.447Z,4.00
2017-07-20T17:01:28.981Z,3.67
2017-07-20T17:03:56.643Z,4.27
2017-07-20T17:06:24.312Z,3.90
2017-07-20T17:08:51.826Z,4.07
2017-07-20T17:11:19.403Z,3.53
2017-07-20T17:13:46.994Z,3.70
2017-07-20T17:16:14.521Z,3.57
2017-07-20T17:18:42.092Z,3.77
2017-07-20T17:21:10.821Z,4.30
2017-07-20T17:23:38.679Z,4.93
2017-07-20T17:26:06.483Z,4.73
2017-07-20T17:31:12.460Z,5.17
2017-07-20T17:33:40.379Z,4.47
2017-07-20T17:36:07.983Z,5.43
2017-07-20T17:38:36.459Z,4.50
2017-07-20T17:41:05.113Z,5.40
2017-07-20T17:43:32.749Z,4.43
2017-07-20T17:46:00.515Z,4.67
2017-07-20T17:48:29.216Z,5.13
2017-07-20T17:50:58.248Z,5.00
2017-07-20T17:53:25.890Z,5.80
2017-07-20T17:55:53.460Z,4.50
2017-07-20T17:58:21.433Z,5.10
2017-07-20T18:00:49.420Z,4.40
2017-07-20T18:03:17.167Z,6.00
2017-07-20T18:05:44.748Z,4.67
2017-07-20T18:08:12.247Z,3.80
2017-07-20T18:10:39.747Z,4.67
2017-07-20T18:13:07.742Z,4.10
2017-07-20T18:15:35.358Z,5.20
2017-07-20T18:18:02.852Z,4.63
2017-07-20T18:20:30.699Z,5.63
2017-07-20T18:22:58.211Z,4.60
2017-07-20T18:25:25.789Z,5.20
2017-07-20T18:27:53.587Z,4.50
2017-07-20T18:30:21.144Z,4.30
2017-07-20T18:32:49.159Z,4.07
2017-07-20T18:35:16.979Z,4.87
2017-07-20T18:37:44.737Z,3.70
2017-07-20T18:40:12.526Z,5.87
2017-07-20T18:42:40.391Z,5.30
2017-07-20T18:45:07.902Z,6.27
2017-07-20T18:47:35.687Z,6.30
2017-07-20T18:50:03.655Z,7.23
2017-07-20T18:52:31.448Z,6.50
2017-07-20T18:55:00.267Z,6.53
2017-07-20T18:57:28.452Z,5.57
2017-07-20T18:59:56.243Z,6.43
2017-07-20T19:02:24.193Z,5.97
2017-07-20T19:04:51.968Z,7.43
2017-07-20T19:07:19.587Z,6.80
2017-07-20T19:09:47.419Z,8.33
2017-07-20T19:12:15.200Z,9.50
2017-07-20T19:14:42.815Z,7.30
2017-07-20T19:17:10.507Z,7.70
2017-07-20T19:19:38.032Z,7.67
2017-07-20T19:22:05.824Z,8.30
2017-07-20T19:24:33.476Z,7.00
2017-07-20T19:27:00.989Z,7.00
2017-07-20T19:29:28.507Z,5.93
2017-07-20T19:31:56.814Z,7.60
2017-07-20T19:34:24.320Z,8.03
2017-07-20T19:36:51.866Z,8.70
2017-07-20T19:39:19.827Z,8.37
2017-07-20T19:41:47.327Z,9.10
2017-07-20T19:44:14.822Z,8.53
2017-07-20T19:46:42.411Z,8.73
2017-07-20T19:49:10.634Z,10.37
2017-07-20T19:51:38.170Z,7.90
2017-07-20T19:54:05.727Z,8.77
2017-07-20T19:56:33.235Z,8.50
2017-07-20T19:59:01.033Z,10.33
2017-07-20T20:01:28.636Z,8.93
2017-07-20T20:03:56.410Z,9.60
2017-07-20T20:06:24.259Z,9.33
2017-07-20T20:08:52.166Z,9.30
2017-07-20T20:11:19.922Z,9.30
2017-07-20T20:13:47.531Z,9.40
2017-07-20T20:16:15.445Z,8.20
2017-07-20T20:18:43.028Z,9.20
2017-07-20T20:21:10.530Z,9.03
2017-07-20T20:23:38.319Z,9.40
2017-07-20T20:26:05.844Z,9.17
2017-07-20T20:28:33.354Z,11.00
2017-07-20T20:31:00.926Z,11.80
2017-07-20T20:33:28.552Z,12.00
2017-07-20T20:35:56.091Z,11.47
2017-07-20T20:38:23.683Z,9.43
2017-07-20T20:40:51.574Z,10.47
2017-07-20T20:43:19.222Z,11.07
2017-07-20T20:45:46.897Z,11.30
2017-07-20T20:48:14.752Z,9.87
2017-07-20T20:50:42.306Z,10.03
2017-07-20T20:53:09.861Z,11.07
2017-07-20T20:55:37.460Z,18.30
2017-07-20T20:58:04.958Z,13.07
2017-07-20T21:00:32.450Z,11.37
2017-07-20T21:03:00.039Z,12.57
2017-07-20T21:05:27.644Z,12.63
2017-07-20T21:07:55.151Z,12.47
2017-07-20T21:10:23.068Z,12.70
2017-07-20T21:12:50.575Z,14.37
2017-07-20T21:15:18.074Z,13.90
2017-07-20T21:17:45.763Z,12.40
2017-07-20T21:20:13.283Z,13.97
2017-07-20T21:22:40.791Z,12.70
2017-07-20T21:25:08.602Z,12.00
2017-07-20T21:27:37.115Z,13.97
2017-07-20T21:30:04.979Z,15.13
2017-07-20T21:32:32.525Z,15.30
2017-07-20T21:35:00.802Z,14.90
2017-07-20T21:37:28.307Z,15.80
2017-07-20T21:39:55.839Z,17.20
2017-07-20T21:42:23.434Z,16.20
2017-07-20T21:44:51.430Z,17.53
2017-07-20T21:47:18.967Z,20.77
2017-07-20T21:49:46.527Z,17.40
2017-07-20T21:52:14.167Z,18.90
2017-07-20T21:54:41.683Z,19.10
2017-07-20T21:57:09.526Z,18.00
2017-07-20T21:59:37.839Z,16.97
2017-07-20T22:02:05.348Z,19.87
2017-07-20T22:04:32.938Z,18.77
2017-07-20T22:07:00.517Z,21.30
2017-07-20T22:09:28.028Z,22.33
2017-07-20T22:11:55.619Z,17.00
2017-07-20T22:14:23.179Z,16.37
2017-07-20T22:16:50.688Z,16.23
2017-07-20T22:19:18.286Z,18.53
2017-07-20T22:21:45.804Z,17.97
2017-07-20T22:24:13.316Z,18.20
2017-07-20T22:26:41.114Z,18.10
2017-07-20T22:29:08.664Z,20.23
2017-07-20T22:31:36.171Z,21.30
2017-07-20T22:34:04.020Z,22.50
2017-07-20T22:36:32.016Z,20.33
2017-07-20T22:38:59.584Z,18.37
2017-07-20T22:41:27.155Z,20.93
2017-07-20T22:43:54.676Z,17.77
2017-07-20T22:46:22.178Z,17.70
2017-07-20T22:48:50.600Z,15.10
2017-07-20T22:51:18.587Z,17.70
2017-07-20T22:53:46.753Z,19.67
2017-07-20T22:56:14.263Z,24.63
2017-07-20T22:58:41.835Z,22.53
2017-07-20T23:01:09.342Z,24.90
2017-07-20T23:03:36.904Z,24.40
2017-07-20T23:06:04.759Z,25.17
2017-07-20T23:08:32.295Z,21.33
2017-07-20T23:10:59.846Z,23.57
2017-07-20T23:13:27.634Z,23.37
2017-07-20T23:15:55.143Z,25.47
2017-07-20T23:18:22.648Z,28.00
2017-07-20T23:20:50.222Z,28.33
2017-07-20T23:23:17.739Z,30.00
2017-07-20T23:25:45.251Z,28.60
2017-07-20T23:28:13.058Z,27.30
2017-07-20T23:30:40.651Z,27.90
2017-07-20T23:33:08.155Z,31.60
2017-07-20T23:35:35.724Z,30.80
2017-07-20T23:38:03.269Z,28.70
2017-07-20T23:40:30.779Z,27.17
2017-07-20T23:42:58.402Z,37.57
2017-07-20T23:45:25.940Z,30.40
2017-07-20T23:47:53.483Z,34.30
2017-07-20T23:50:21.613Z,38.10
2017-07-20T23:52:49.126Z,40.00
2017-07-20T23:55:16.670Z,37.37
2017-07-20T23:57:44.320Z,33.57
